sensor_id;sensor_type;location;lat;lon;timestamp;P1;durP1;ratioP1;P2;durP2;ratioP2
61085;SDS011;46967;48.876;2.136;2023-03-08T00:01:28;17.77;;;9.35;;
61085;SDS011;46967;48.876;2.136;2023-03-08T00:03:53;13.45;;;8.18;;
61085;SDS011;46967;48.876;2.136;2023-03-08T00:06:20;16.35;;;8.90;;
61085;SDS011;46967;48.876;2.136;2023-03-08T00:08:46;13.10;;;8.57;;
61085;SDS011;46967;48.876;2.136;2023-03-08T00:11:13;14.18;;;8.55;;
61085;SDS011;46967;48.876;2.136;2023-03-08T00:13:39;15.55;;;8.10;;
61085;SDS011;46967;48.876;2.136;2023-03-08T00:16:06;16.55;;;8.70;;
61085;SDS011;46967;48.876;2.136;2023-03-08T00:18:34;11.77;;;8.23;;
61085;SDS011;46967;48.876;2.136;2023-03-08T00:21:04;13.05;;;8.43;;
61085;SDS011;46967;48.876;2.136;2023-03-08T00:23:31;14.13;;;7.90;;
61085;SDS011;46967;48.876;2.136;2023-03-08T00:25:57;14.75;;;8.80;;
61085;SDS011;46967;48.876;2.136;2023-03-08T00:28:23;14.30;;;8.60;;
61085;SDS011;46967;48.876;2.136;2023-03-08T00:30:58;15.48;;;8.68;;
61085;SDS011;46967;48.876;2.136;2023-03-08T00:33:32;14.55;;;8.57;;
61085;SDS011;46967;48.876;2.136;2023-03-08T00:35:58;13.75;;;8.25;;
61085;SDS011;46967;48.876;2.136;2023-03-08T00:38:32;14.07;;;8.50;;
61085;SDS011;46967;48.876;2.136;2023-03-08T00:40:59;14.15;;;8.93;;
61085;SDS011;46967;48.876;2.136;2023-03-08T00:43:25;14.25;;;9.00;;
61085;SDS011;46967;48.876;2.136;2023-03-08T00:45:53;13.48;;;8.57;;
61085;SDS011;46967;48.876;2.136;2023-03-08T00:48:19;14.20;;;9.15;;
61085;SDS011;46967;48.876;2.136;2023-03-08T00:50:45;15.95;;;8.75;;
61085;SDS011;46967;48.876;2.136;2023-03-08T00:53:10;14.43;;;9.43;;
61085;SDS011;46967;48.876;2.136;2023-03-08T00:55:36;15.35;;;8.82;;
61085;SDS011;46967;48.876;2.136;2023-03-08T00:58:01;14.52;;;9.27;;
61085;SDS011;46967;48.876;2.136;2023-03-08T01:00:27;18.00;;;9.00;;
61085;SDS011;46967;48.876;2.136;2023-03-08T01:02:54;16.17;;;9.38;;
61085;SDS011;46967;48.876;2.136;2023-03-08T01:05:20;15.73;;;9.82;;
61085;SDS011;46967;48.876;2.136;2023-03-08T01:07:45;13.80;;;8.65;;
61085;SDS011;46967;48.876;2.136;2023-03-08T01:10:11;16.92;;;8.82;;
61085;SDS011;46967;48.876;2.136;2023-03-08T01:12:37;14.48;;;8.13;;
61085;SDS011;46967;48.876;2.136;2023-03-08T01:15:03;15.63;;;8.95;;
61085;SDS011;46967;48.876;2.136;2023-03-08T01:17:29;16.60;;;9.45;;
61085;SDS011;46967;48.876;2.136;2023-03-08T01:19:55;14.60;;;8.75;;
61085;SDS011;46967;48.876;2.136;2023-03-08T01:22:21;16.25;;;8.60;;
61085;SDS011;46967;48.876;2.136;2023-03-08T01:24:46;16.40;;;9.15;;
61085;SDS011;46967;48.876;2.136;2023-03-08T01:27:13;12.65;;;8.82;;
61085;SDS011;46967;48.876;2.136;2023-03-08T01:29:40;14.90;;;8.20;;
61085;SDS011;46967;48.876;2.136;2023-03-08T01:32:06;13.18;;;8.02;;
61085;SDS011;46967;48.876;2.136;2023-03-08T01:34:32;15.05;;;8.90;;
61085;SDS011;46967;48.876;2.136;2023-03-08T01:36:57;17.95;;;9.15;;
61085;SDS011;46967;48.876;2.136;2023-03-08T01:39:22;15.73;;;8.43;;
61085;SDS011;46967;48.876;2.136;2023-03-08T01:41:48;14.73;;;7.65;;
61085;SDS011;46967;48.876;2.136;2023-03-08T01:44:14;13.68;;;8.05;;
61085;SDS011;46967;48.876;2.136;2023-03-08T01:46:41;13.98;;;7.53;;
61085;SDS011;46967;48.876;2.136;2023-03-08T01:49:07;11.30;;;7.72;;
61085;SDS011;46967;48.876;2.136;2023-03-08T01:51:42;13.70;;;8.57;;
61085;SDS011;46967;48.876;2.136;2023-03-08T01:54:18;14.48;;;8.57;;
61085;SDS011;46967;48.876;2.136;2023-03-08T01:56:47;15.40;;;8.98;;
61085;SDS011;46967;48.876;2.136;2023-03-08T01:59:15;12.63;;;8.18;;
61085;SDS011;46967;48.876;2.136;2023-03-08T02:01:42;14.85;;;7.78;;
61085;SDS011;46967;48.876;2.136;2023-03-08T02:04:07;12.93;;;8.00;;
61085;SDS011;46967;48.876;2.136;2023-03-08T02:06:34;12.50;;;7.40;;
61085;SDS011;46967;48.876;2.136;2023-03-08T02:08:59;12.48;;;8.13;;
61085;SDS011;46967;48.876;2.136;2023-03-08T02:11:28;17.37;;;7.77;;
61085;SDS011;46967;48.876;2.136;2023-03-08T02:13:55;14.10;;;7.75;;
61085;SDS011;46967;48.876;2.136;2023-03-08T02:16:21;10.52;;;7.00;;
61085;SDS011;46967;48.876;2.136;2023-03-08T02:21:18;12.13;;;7.22;;
61085;SDS011;46967;48.876;2.136;2023-03-08T02:23:43;13.38;;;7.95;;
61085;SDS011;46967;48.876;2.136;2023-03-08T02:26:08;13.80;;;7.40;;
61085;SDS011;46967;48.876;2.136;2023-03-08T02:28:34;12.13;;;7.28;;
61085;SDS011;46967;48.876;2.136;2023-03-08T02:30:59;13.63;;;7.20;;
61085;SDS011;46967;48.876;2.136;2023-03-08T02:33:26;11.32;;;7.03;;
61085;SDS011;46967;48.876;2.136;2023-03-08T02:35:51;10.20;;;6.10;;
61085;SDS011;46967;48.876;2.136;2023-03-08T02:38:18;10.82;;;6.60;;
61085;SDS011;46967;48.876;2.136;2023-03-08T02:40:44;11.13;;;6.50;;
61085;SDS011;46967;48.876;2.136;2023-03-08T02:43:10;10.85;;;6.57;;
61085;SDS011;46967;48.876;2.136;2023-03-08T02:45:36;10.25;;;5.65;;
61085;SDS011;46967;48.876;2.136;2023-03-08T02:48:02;9.40;;;5.93;;
61085;SDS011;46967;48.876;2.136;2023-03-08T02:50:28;10.13;;;6.20;;
61085;SDS011;46967;48.876;2.136;2023-03-08T02:52:54;10.98;;;6.43;;
61085;SDS011;46967;48.876;2.136;2023-03-08T02:55:19;7.78;;;5.93;;
61085;SDS011;46967;48.876;2.136;2023-03-08T02:57:45;12.07;;;5.78;;
61085;SDS011;46967;48.876;2.136;2023-03-08T03:00:10;8.73;;;5.78;;
61085;SDS011;46967;48.876;2.136;2023-03-08T03:02:36;8.70;;;5.55;;
61085;SDS011;46967;48.876;2.136;2023-03-08T03:05:02;7.72;;;5.25;;
61085;SDS011;46967;48.876;2.136;2023-03-08T03:07:29;7.45;;;4.90;;
61085;SDS011;46967;48.876;2.136;2023-03-08T03:09:54;9.00;;;5.75;;
61085;SDS011;46967;48.876;2.136;2023-03-08T03:12:20;8.30;;;5.20;;
61085;SDS011;46967;48.876;2.136;2023-03-08T03:14:45;9.05;;;5.43;;
61085;SDS011;46967;48.876;2.136;2023-03-08T03:17:10;7.50;;;5.30;;
61085;SDS011;46967;48.876;2.136;2023-03-08T03:19:36;7.97;;;4.97;;
61085;SDS011;46967;48.876;2.136;2023-03-08T03:22:02;8.02;;;4.90;;
61085;SDS011;46967;48.876;2.136;2023-03-08T03:24:27;7.90;;;4.75;;
61085;SDS011;46967;48.876;2.136;2023-03-08T03:26:52;7.30;;;4.55;;
61085;SDS011;46967;48.876;2.136;2023-03-08T03:29:18;6.53;;;4.38;;
61085;SDS011;46967;48.876;2.136;2023-03-08T03:31:43;8.50;;;4.18;;
61085;SDS011;46967;48.876;2.136;2023-03-08T03:34:09;9.32;;;4.88;;
61085;SDS011;46967;48.876;2.136;2023-03-08T03:36:34;6.85;;;4.55;;
61085;SDS011;46967;48.876;2.136;2023-03-08T03:38:59;8.68;;;4.45;;
61085;SDS011;46967;48.876;2.136;2023-03-08T03:41:25;6.78;;;4.50;;
61085;SDS011;46967;48.876;2.136;2023-03-08T03:43:50;9.48;;;4.88;;
61085;SDS011;46967;48.876;2.136;2023-03-08T03:46:17;6.88;;;4.47;;
61085;SDS011;46967;48.876;2.136;2023-03-08T03:48:44;8.82;;;5.13;;
61085;SDS011;46967;48.876;2.136;2023-03-08T03:51:16;6.93;;;4.10;;
61085;SDS011;46967;48.876;2.136;2023-03-08T03:53:44;7.72;;;4.57;;
61085;SDS011;46967;48.876;2.136;2023-03-08T03:56:14;9.57;;;5.53;;
61085;SDS011;46967;48.876;2.136;2023-03-08T03:58:50;8.95;;;4.40;;
61085;SDS011;46967;48.876;2.136;2023-03-08T04:01:16;6.82;;;4.65;;
61085;SDS011;46967;48.876;2.136;2023-03-08T04:03:46;6.65;;;5.10;;
61085;SDS011;46967;48.876;2.136;2023-03-08T04:06:20;8.15;;;5.25;;
61085;SDS011;46967;48.876;2.136;2023-03-08T04:08:47;7.85;;;5.38;;
61085;SDS011;46967;48.876;2.136;2023-03-08T04:11:14;9.13;;;4.88;;
61085;SDS011;46967;48.876;2.136;2023-03-08T04:13:41;7.75;;;4.85;;
61085;SDS011;46967;48.876;2.136;2023-03-08T04:16:08;7.60;;;5.43;;
61085;SDS011;46967;48.876;2.136;2023-03-08T04:18:37;6.93;;;4.55;;
61085;SDS011;46967;48.876;2.136;2023-03-08T04:21:03;7.82;;;4.88;;
61085;SDS011;46967;48.876;2.136;2023-03-08T04:23:28;8.35;;;4.75;;
61085;SDS011;46967;48.876;2.136;2023-03-08T04:25:54;7.53;;;4.53;;
61085;SDS011;46967;48.876;2.136;2023-03-08T04:28:19;5.75;;;4.32;;
61085;SDS011;46967;48.876;2.136;2023-03-08T04:30:45;7.40;;;4.75;;
61085;SDS011;46967;48.876;2.136;2023-03-08T04:33:10;5.80;;;3.70;;
61085;SDS011;46967;48.876;2.136;2023-03-08T04:35:35;8.02;;;3.67;;
61085;SDS011;46967;48.876;2.136;2023-03-08T04:38:01;6.25;;;3.55;;
61085;SDS011;46967;48.876;2.136;2023-03-08T04:40:26;6.00;;;3.28;;
61085;SDS011;46967;48.876;2.136;2023-03-08T04:42:52;4.63;;;3.10;;
61085;SDS011;46967;48.876;2.136;2023-03-08T04:45:17;3.92;;;2.67;;
61085;SDS011;46967;48.876;2.136;2023-03-08T04:47:42;4.38;;;2.65;;
61085;SDS011;46967;48.876;2.136;2023-03-08T04:50:08;4.65;;;2.70;;
61085;SDS011;46967;48.876;2.136;2023-03-08T04:52:33;3.53;;;2.42;;
61085;SDS011;46967;48.876;2.136;2023-03-08T04:54:59;3.28;;;2.47;;
61085;SDS011;46967;48.876;2.136;2023-03-08T04:57:24;3.08;;;2.10;;
61085;SDS011;46967;48.876;2.136;2023-03-08T04:59:50;3.13;;;2.25;;
61085;SDS011;46967;48.876;2.136;2023-03-08T05:02:15;4.13;;;2.53;;
61085;SDS011;46967;48.876;2.136;2023-03-08T05:04:41;3.22;;;1.83;;
61085;SDS011;46967;48.876;2.136;2023-03-08T05:07:06;3.22;;;2.40;;
61085;SDS011;46967;48.876;2.136;2023-03-08T05:09:31;3.80;;;2.55;;
61085;SDS011;46967;48.876;2.136;2023-03-08T05:11:57;3.95;;;2.42;;
61085;SDS011;46967;48.876;2.136;2023-03-08T05:14:23;3.67;;;2.40;;
61085;SDS011;46967;48.876;2.136;2023-03-08T05:16:49;2.97;;;2.30;;
61085;SDS011;46967;48.876;2.136;2023-03-08T05:19:14;3.85;;;2.58;;
61085;SDS011;46967;48.876;2.136;2023-03-08T05:21:39;2.90;;;2.20;;
61085;SDS011;46967;48.876;2.136;2023-03-08T05:24:05;2.53;;;2.20;;
61085;SDS011;46967;48.876;2.136;2023-03-08T05:26:30;4.10;;;2.28;;
61085;SDS011;46967;48.876;2.136;2023-03-08T05:28:59;3.30;;;2.25;;
61085;SDS011;46967;48.876;2.136;2023-03-08T05:31:25;3.78;;;2.30;;
61085;SDS011;46967;48.876;2.136;2023-03-08T05:33:51;3.90;;;2.47;;
61085;SDS011;46967;48.876;2.136;2023-03-08T05:36:17;3.40;;;2.15;;
61085;SDS011;46967;48.876;2.136;2023-03-08T05:38:43;2.78;;;2.20;;
61085;SDS011;46967;48.876;2.136;2023-03-08T05:41:13;2.80;;;2.17;;
61085;SDS011;46967;48.876;2.136;2023-03-08T05:43:40;3.60;;;2.20;;
61085;SDS011;46967;48.876;2.136;2023-03-08T05:46:06;2.22;;;1.70;;
61085;SDS011;46967;48.876;2.136;2023-03-08T05:48:37;2.45;;;1.80;;
61085;SDS011;46967;48.876;2.136;2023-03-08T05:51:06;2.95;;;2.08;;
61085;SDS011;46967;48.876;2.136;2023-03-08T05:53:34;2.88;;;2.10;;
61085;SDS011;46967;48.876;2.136;2023-03-08T05:56:33;3.00;;;2.00;;
61085;SDS011;46967;48.876;2.136;2023-03-08T05:58:51;2.38;;;1.88;;
61085;SDS011;46967;48.876;2.136;2023-03-08T06:01:21;3.63;;;1.92;;
61085;SDS011;46967;48.876;2.136;2023-03-08T06:03:49;2.00;;;1.70;;
61085;SDS011;46967;48.876;2.136;2023-03-08T06:06:16;3.25;;;1.80;;
61085;SDS011;46967;48.876;2.136;2023-03-08T06:08:42;2.53;;;2.10;;
61085;SDS011;46967;48.876;2.136;2023-03-08T06:11:09;2.38;;;1.90;;
61085;SDS011;46967;48.876;2.136;2023-03-08T06:13:34;3.53;;;2.08;;
61085;SDS011;46967;48.876;2.136;2023-03-08T06:16:00;2.38;;;1.77;;
61085;SDS011;46967;48.876;2.136;2023-03-08T06:18:27;2.42;;;1.88;;
61085;SDS011;46967;48.876;2.136;2023-03-08T06:20:57;2.47;;;1.75;;
61085;SDS011;46967;48.876;2.136;2023-03-08T06:23:24;2.15;;;1.70;;
61085;SDS011;46967;48.876;2.136;2023-03-08T06:25:50;4.18;;;2.03;;
61085;SDS011;46967;48.876;2.136;2023-03-08T06:28:15;2.38;;;1.75;;
61085;SDS011;46967;48.876;2.136;2023-03-08T06:30:40;3.00;;;1.65;;
61085;SDS011;46967;48.876;2.136;2023-03-08T06:33:06;1.98;;;1.63;;
61085;SDS011;46967;48.876;2.136;2023-03-08T06:35:31;2.25;;;1.55;;
61085;SDS011;46967;48.876;2.136;2023-03-08T06:37:56;1.98;;;1.58;;
61085;SDS011;46967;48.876;2.136;2023-03-08T06:40:22;1.83;;;1.52;;
61085;SDS011;46967;48.876;2.136;2023-03-08T06:42:47;1.80;;;1.23;;
61085;SDS011;46967;48.876;2.136;2023-03-08T06:45:12;1.55;;;1.45;;
61085;SDS011;46967;48.876;2.136;2023-03-08T06:47:38;2.55;;;1.75;;
61085;SDS011;46967;48.876;2.136;2023-03-08T06:50:03;1.98;;;1.52;;
61085;SDS011;46967;48.876;2.136;2023-03-08T06:52:29;3.92;;;1.70;;
61085;SDS011;46967;48.876;2.136;2023-03-08T06:55:01;2.28;;;1.40;;
61085;SDS011;46967;48.876;2.136;2023-03-08T06:57:27;2.03;;;1.38;;
61085;SDS011;46967;48.876;2.136;2023-03-08T06:59:53;2.25;;;1.40;;
61085;SDS011;46967;48.876;2.136;2023-03-08T07:02:18;2.90;;;1.50;;
61085;SDS011;46967;48.876;2.136;2023-03-08T07:04:44;1.95;;;1.08;;
61085;SDS011;46967;48.876;2.136;2023-03-08T07:07:09;1.90;;;1.10;;
61085;SDS011;46967;48.876;2.136;2023-03-08T07:09:34;2.13;;;1.40;;
61085;SDS011;46967;48.876;2.136;2023-03-08T07:12:00;2.35;;;1.27;;
61085;SDS011;46967;48.876;2.136;2023-03-08T07:14:25;2.10;;;1.02;;
61085;SDS011;46967;48.876;2.136;2023-03-08T07:16:50;3.28;;;1.38;;
61085;SDS011;46967;48.876;2.136;2023-03-08T07:19:16;2.55;;;1.35;;
61085;SDS011;46967;48.876;2.136;2023-03-08T07:21:41;2.40;;;1.20;;
61085;SDS011;46967;48.876;2.136;2023-03-08T07:24:08;3.45;;;1.10;;
61085;SDS011;46967;48.876;2.136;2023-03-08T07:26:34;3.28;;;1.08;;
61085;SDS011;46967;48.876;2.136;2023-03-08T07:29:00;2.90;;;0.95;;
61085;SDS011;46967;48.876;2.136;2023-03-08T07:31:25;2.42;;;1.50;;
61085;SDS011;46967;48.876;2.136;2023-03-08T07:33:52;5.45;;;1.15;;
61085;SDS011;46967;48.876;2.136;2023-03-08T07:36:18;3.13;;;1.08;;
61085;SDS011;46967;48.876;2.136;2023-03-08T07:38:43;3.67;;;1.17;;
61085;SDS011;46967;48.876;2.136;2023-03-08T07:41:10;3.95;;;0.80;;
61085;SDS011;46967;48.876;2.136;2023-03-08T07:43:36;4.93;;;1.20;;
61085;SDS011;46967;48.876;2.136;2023-03-08T07:46:02;2.15;;;0.93;;
61085;SDS011;46967;48.876;2.136;2023-03-08T07:48:29;4.70;;;1.20;;
61085;SDS011;46967;48.876;2.136;2023-03-08T07:51:04;3.92;;;0.90;;
61085;SDS011;46967;48.876;2.136;2023-03-08T07:53:33;3.75;;;0.82;;
61085;SDS011;46967;48.876;2.136;2023-03-08T07:56:00;3.00;;;1.00;;
61085;SDS011;46967;48.876;2.136;2023-03-08T07:58:26;6.07;;;0.98;;
61085;SDS011;46967;48.876;2.136;2023-03-08T08:00:52;7.10;;;1.00;;
61085;SDS011;46967;48.876;2.136;2023-03-08T08:03:17;4.68;;;0.77;;
61085;SDS011;46967;48.876;2.136;2023-03-08T08:05:43;3.67;;;1.25;;
61085;SDS011;46967;48.876;2.136;2023-03-08T08:08:08;6.97;;;1.30;;
61085;SDS011;46967;48.876;2.136;2023-03-08T08:10:34;6.13;;;1.05;;
61085;SDS011;46967;48.876;2.136;2023-03-08T08:13:00;7.60;;;1.35;;
61085;SDS011;46967;48.876;2.136;2023-03-08T08:15:25;9.25;;;1.25;;
61085;SDS011;46967;48.876;2.136;2023-03-08T08:17:51;7.35;;;1.13;;
61085;SDS011;46967;48.876;2.136;2023-03-08T08:20:16;7.78;;;1.30;;
61085;SDS011;46967;48.876;2.136;2023-03-08T08:22:42;10.80;;;1.10;;
61085;SDS011;46967;48.876;2.136;2023-03-08T08:25:07;8.30;;;1.50;;
61085;SDS011;46967;48.876;2.136;2023-03-08T08:27:33;7.25;;;1.30;;
61085;SDS011;46967;48.876;2.136;2023-03-08T08:29:59;6.57;;;1.38;;
61085;SDS011;46967;48.876;2.136;2023-03-08T08:32:24;8.18;;;1.27;;
61085;SDS011;46967;48.876;2.136;2023-03-08T08:34:50;6.72;;;1.35;;
61085;SDS011;46967;48.876;2.136;2023-03-08T08:37:16;4.85;;;1.50;;
61085;SDS011;46967;48.876;2.136;2023-03-08T08:39:41;3.10;;;0.98;;
61085;SDS011;46967;48.876;2.136;2023-03-08T08:42:06;8.05;;;1.67;;
61085;SDS011;46967;48.876;2.136;2023-03-08T08:44:32;9.02;;;1.38;;
61085;SDS011;46967;48.876;2.136;2023-03-08T08:46:57;8.55;;;1.42;;
61085;SDS011;46967;48.876;2.136;2023-03-08T08:49:23;6.45;;;1.30;;
61085;SDS011;46967;48.876;2.136;2023-03-08T08:51:48;4.63;;;1.50;;
61085;SDS011;46967;48.876;2.136;2023-03-08T08:54:14;6.95;;;1.70;;
61085;SDS011;46967;48.876;2.136;2023-03-08T08:56:39;6.18;;;2.08;;
61085;SDS011;46967;48.876;2.136;2023-03-08T08:59:07;9.80;;;2.03;;
61085;SDS011;46967;48.876;2.136;2023-03-08T09:01:34;6.38;;;1.17;;
61085;SDS011;46967;48.876;2.136;2023-03-08T09:04:01;6.80;;;1.73;;
61085;SDS011;46967;48.876;2.136;2023-03-08T09:06:27;8.98;;;1.67;;
61085;SDS011;46967;48.876;2.136;2023-03-08T09:08:54;8.77;;;1.90;;
61085;SDS011;46967;48.876;2.136;2023-03-08T09:11:21;11.38;;;2.72;;
61085;SDS011;46967;48.876;2.136;2023-03-08T09:13:48;9.13;;;3.53;;
61085;SDS011;46967;48.876;2.136;2023-03-08T09:18:52;7.13;;;1.80;;
61085;SDS011;46967;48.876;2.136;2023-03-08T09:21:19;8.60;;;2.40;;
61085;SDS011;46967;48.876;2.136;2023-03-08T09:23:44;7.97;;;2.30;;
61085;SDS011;46967;48.876;2.136;2023-03-08T09:26:09;12.93;;;1.90;;
61085;SDS011;46967;48.876;2.136;2023-03-08T09:28:35;9.77;;;1.90;;
61085;SDS011;46967;48.876;2.136;2023-03-08T09:31:04;9.50;;;1.63;;
61085;SDS011;46967;48.876;2.136;2023-03-08T09:33:36;3.33;;;1.60;;
61085;SDS011;46967;48.876;2.136;2023-03-08T09:36:06;6.70;;;1.42;;
61085;SDS011;46967;48.876;2.136;2023-03-08T09:38:32;5.57;;;1.25;;
61085;SDS011;46967;48.876;2.136;2023-03-08T09:46:29;7.10;;;1.58;;
61085;SDS011;46967;48.876;2.136;2023-03-08T09:49:00;6.72;;;1.50;;
61085;SDS011;46967;48.876;2.136;2023-03-08T09:51:31;5.43;;;1.03;;
61085;SDS011;46967;48.876;2.136;2023-03-08T09:54:08;5.45;;;1.48;;
61085;SDS011;46967;48.876;2.136;2023-03-08T09:56:50;5.55;;;1.13;;
61085;SDS011;46967;48.876;2.136;2023-03-08T09:59:22;7.90;;;1.17;;
61085;SDS011;46967;48.876;2.136;2023-03-08T10:02:01;4.82;;;1.33;;
61085;SDS011;46967;48.876;2.136;2023-03-08T10:04:56;5.57;;;1.35;;
61085;SDS011;46967;48.876;2.136;2023-03-08T10:12:58;8.82;;;1.70;;
61085;SDS011;46967;48.876;2.136;2023-03-08T10:15:26;3.80;;;1.02;;
61085;SDS011;46967;48.876;2.136;2023-03-08T10:18:04;4.03;;;1.95;;
61085;SDS011;46967;48.876;2.136;2023-03-08T10:20:55;5.80;;;1.27;;
61085;SDS011;46967;48.876;2.136;2023-03-08T10:23:23;3.97;;;1.33;;
61085;SDS011;46967;48.876;2.136;2023-03-08T10:25:52;7.45;;;1.50;;
61085;SDS011;46967;48.876;2.136;2023-03-08T10:33:13;6.97;;;1.63;;
61085;SDS011;46967;48.876;2.136;2023-03-08T10:38:31;6.32;;;1.27;;
61085;SDS011;46967;48.876;2.136;2023-03-08T10:41:00;5.30;;;1.40;;
61085;SDS011;46967;48.876;2.136;2023-03-08T10:43:44;3.47;;;1.20;;
61085;SDS011;46967;48.876;2.136;2023-03-08T10:46:19;9.13;;;1.65;;
61085;SDS011;46967;48.876;2.136;2023-03-08T10:48:46;5.35;;;0.90;;
61085;SDS011;46967;48.876;2.136;2023-03-08T10:51:16;6.45;;;1.70;;
61085;SDS011;46967;48.876;2.136;2023-03-08T10:54:08;2.05;;;0.70;;
61085;SDS011;46967;48.876;2.136;2023-03-08T10:56:39;2.90;;;1.10;;
61085;SDS011;46967;48.876;2.136;2023-03-08T10:59:45;2.78;;;0.70;;
61085;SDS011;46967;48.876;2.136;2023-03-08T11:04:48;2.35;;;1.00;;
61085;SDS011;46967;48.876;2.136;2023-03-08T11:07:22;5.82;;;0.98;;
61085;SDS011;46967;48.876;2.136;2023-03-08T11:10:16;4.88;;;0.77;;
61085;SDS011;46967;48.876;2.136;2023-03-08T11:12:43;2.67;;;0.80;;
61085;SDS011;46967;48.876;2.136;2023-03-08T11:15:16;1.98;;;0.55;;
61085;SDS011;46967;48.876;2.136;2023-03-08T11:17:52;2.47;;;0.90;;
61085;SDS011;46967;48.876;2.136;2023-03-08T11:23:15;7.38;;;0.80;;
61085;SDS011;46967;48.876;2.136;2023-03-08T11:25:54;5.88;;;1.20;;
61085;SDS011;46967;48.876;2.136;2023-03-08T11:28:35;2.08;;;0.98;;
61085;SDS011;46967;48.876;2.136;2023-03-08T11:31:25;6.70;;;1.45;;
61085;SDS011;46967;48.876;2.136;2023-03-08T11:36:35;3.55;;;0.68;;
61085;SDS011;46967;48.876;2.136;2023-03-08T11:44:28;4.60;;;1.20;;
61085;SDS011;46967;48.876;2.136;2023-03-08T11:47:01;5.47;;;1.00;;
61085;SDS011;46967;48.876;2.136;2023-03-08T11:49:56;3.40;;;0.80;;
61085;SDS011;46967;48.876;2.136;2023-03-08T11:55:35;6.45;;;1.17;;
61085;SDS011;46967;48.876;2.136;2023-03-08T11:58:13;3.20;;;0.82;;
61085;SDS011;46967;48.876;2.136;2023-03-08T12:00:42;3.53;;;0.98;;
61085;SDS011;46967;48.876;2.136;2023-03-08T12:03:18;7.07;;;1.38;;
61085;SDS011;46967;48.876;2.136;2023-03-08T12:05:49;2.28;;;0.60;;
61085;SDS011;46967;48.876;2.136;2023-03-08T12:13:42;3.97;;;0.80;;
61085;SDS011;46967;48.876;2.136;2023-03-08T12:26:43;2.67;;;0.85;;
61085;SDS011;46967;48.876;2.136;2023-03-08T12:29:15;3.67;;;0.90;;
61085;SDS011;46967;48.876;2.136;2023-03-08T12:31:48;4.78;;;1.33;;
61085;SDS011;46967;48.876;2.136;2023-03-08T12:34:25;4.07;;;1.40;;
61085;SDS011;46967;48.876;2.136;2023-03-08T12:36:51;5.95;;;0.90;;
61085;SDS011;46967;48.876;2.136;2023-03-08T12:39:30;4.35;;;0.93;;
61085;SDS011;46967;48.876;2.136;2023-03-08T12:44:33;6.38;;;0.95;;
61085;SDS011;46967;48.876;2.136;2023-03-08T12:49:40;4.50;;;0.90;;
61085;SDS011;46967;48.876;2.136;2023-03-08T12:57:21;5.05;;;1.00;;
61085;SDS011;46967;48.876;2.136;2023-03-08T12:59:54;6.00;;;0.77;;
61085;SDS011;46967;48.876;2.136;2023-03-08T13:02:27;2.97;;;0.60;;
61085;SDS011;46967;48.876;2.136;2023-03-08T13:15:35;2.00;;;0.73;;
61085;SDS011;46967;48.876;2.136;2023-03-08T13:18:10;4.13;;;0.70;;
61085;SDS011;46967;48.876;2.136;2023-03-08T13:28:46;6.47;;;2.28;;
61085;SDS011;46967;48.876;2.136;2023-03-08T13:33:44;4.03;;;1.00;;
61085;SDS011;46967;48.876;2.136;2023-03-08T13:36:19;3.30;;;1.27;;
61085;SDS011;46967;48.876;2.136;2023-03-08T13:39:19;3.13;;;1.30;;
61085;SDS011;46967;48.876;2.136;2023-03-08T13:41:46;2.45;;;1.10;;
61085;SDS011;46967;48.876;2.136;2023-03-08T13:44:14;3.25;;;1.90;;
61085;SDS011;46967;48.876;2.136;2023-03-08T13:46:39;3.08;;;1.40;;
61085;SDS011;46967;48.876;2.136;2023-03-08T13:49:20;5.63;;;2.70;;
61085;SDS011;46967;48.876;2.136;2023-03-08T13:51:51;3.75;;;1.15;;
61085;SDS011;46967;48.876;2.136;2023-03-08T13:54:21;2.70;;;1.05;;
61085;SDS011;46967;48.876;2.136;2023-03-08T13:57:03;1.75;;;0.70;;
61085;SDS011;46967;48.876;2.136;2023-03-08T13:59:30;2.25;;;0.70;;
61085;SDS011;46967;48.876;2.136;2023-03-08T14:01:58;2.50;;;0.85;;
61085;SDS011;46967;48.876;2.136;2023-03-08T14:04:24;1.65;;;0.70;;
61085;SDS011;46967;48.876;2.136;2023-03-08T14:06:53;2.50;;;0.70;;
61085;SDS011;46967;48.876;2.136;2023-03-08T14:09:22;0.60;;;0.40;;
61085;SDS011;46967;48.876;2.136;2023-03-08T14:11:57;5.90;;;0.60;;
61085;SDS011;46967;48.876;2.136;2023-03-08T14:14:33;1.30;;;0.55;;
61085;SDS011;46967;48.876;2.136;2023-03-08T14:17:03;1.00;;;0.55;;
61085;SDS011;46967;48.876;2.136;2023-03-08T14:19:33;1.25;;;0.47;;
61085;SDS011;46967;48.876;2.136;2023-03-08T14:22:20;1.80;;;0.40;;
61085;SDS011;46967;48.876;2.136;2023-03-08T14:24:54;1.20;;;0.52;;
61085;SDS011;46967;48.876;2.136;2023-03-08T14:27:29;1.50;;;0.55;;
61085;SDS011;46967;48.876;2.136;2023-03-08T14:30:01;4.55;;;0.60;;
61085;SDS011;46967;48.876;2.136;2023-03-08T14:32:37;2.08;;;0.50;;
61085;SDS011;46967;48.876;2.136;2023-03-08T14:35:19;3.03;;;0.60;;
61085;SDS011;46967;48.876;2.136;2023-03-08T14:37:48;4.18;;;0.90;;
61085;SDS011;46967;48.876;2.136;2023-03-08T14:42:49;2.25;;;0.80;;
61085;SDS011;46967;48.876;2.136;2023-03-08T14:45:19;1.75;;;0.40;;
61085;SDS011;46967;48.876;2.136;2023-03-08T14:53:55;3.20;;;1.17;;
61085;SDS011;46967;48.876;2.136;2023-03-08T14:58:46;2.42;;;1.35;;
61085;SDS011;46967;48.876;2.136;2023-03-08T15:03:50;1.40;;;0.85;;
61085;SDS011;46967;48.876;2.136;2023-03-08T15:06:19;1.75;;;0.55;;
61085;SDS011;46967;48.876;2.136;2023-03-08T15:08:47;2.50;;;0.70;;
61085;SDS011;46967;48.876;2.136;2023-03-08T15:11:13;2.70;;;0.43;;
61085;SDS011;46967;48.876;2.136;2023-03-08T15:13:39;1.90;;;0.60;;
61085;SDS011;46967;48.876;2.136;2023-03-08T15:16:05;3.03;;;0.68;;
61085;SDS011;46967;48.876;2.136;2023-03-08T15:18:31;1.25;;;0.63;;
61085;SDS011;46967;48.876;2.136;2023-03-08T15:20:57;2.55;;;0.60;;
61085;SDS011;46967;48.876;2.136;2023-03-08T15:23:23;1.73;;;0.75;;
61085;SDS011;46967;48.876;2.136;2023-03-08T15:25:50;1.85;;;0.80;;
61085;SDS011;46967;48.876;2.136;2023-03-08T15:28:17;1.83;;;0.60;;
61085;SDS011;46967;48.876;2.136;2023-03-08T15:30:44;3.33;;;1.05;;
61085;SDS011;46967;48.876;2.136;2023-03-08T15:33:09;3.60;;;0.90;;
61085;SDS011;46967;48.876;2.136;2023-03-08T15:35:35;2.45;;;0.90;;
61085;SDS011;46967;48.876;2.136;2023-03-08T15:38:02;2.92;;;0.75;;
61085;SDS011;46967;48.876;2.136;2023-03-08T15:40:28;1.23;;;0.45;;
61085;SDS011;46967;48.876;2.136;2023-03-08T15:42:54;2.08;;;0.60;;
61085;SDS011;46967;48.876;2.136;2023-03-08T15:45:20;2.05;;;0.65;;
61085;SDS011;46967;48.876;2.136;2023-03-08T15:47:58;0.52;;;0.22;;
61085;SDS011;46967;48.876;2.136;2023-03-08T15:50:24;5.13;;;1.23;;
61085;SDS011;46967;48.876;2.136;2023-03-08T15:52:50;3.63;;;0.88;;
61085;SDS011;46967;48.876;2.136;2023-03-08T15:55:16;1.63;;;0.60;;
61085;SDS011;46967;48.876;2.136;2023-03-08T15:57:42;1.52;;;0.57;;
61085;SDS011;46967;48.876;2.136;2023-03-08T16:00:08;3.42;;;0.68;;
61085;SDS011;46967;48.876;2.136;2023-03-08T16:02:37;5.18;;;1.10;;
61085;SDS011;46967;48.876;2.136;2023-03-08T16:05:07;4.63;;;1.00;;
61085;SDS011;46967;48.876;2.136;2023-03-08T16:07:34;2.83;;;0.73;;
61085;SDS011;46967;48.876;2.136;2023-03-08T16:09:59;3.85;;;0.77;;
61085;SDS011;46967;48.876;2.136;2023-03-08T16:12:25;2.22;;;0.75;;
61085;SDS011;46967;48.876;2.136;2023-03-08T16:14:51;1.73;;;0.70;;
61085;SDS011;46967;48.876;2.136;2023-03-08T16:17:18;2.13;;;0.60;;
61085;SDS011;46967;48.876;2.136;2023-03-08T16:19:44;3.75;;;0.95;;
61085;SDS011;46967;48.876;2.136;2023-03-08T16:22:10;3.50;;;0.80;;
61085;SDS011;46967;48.876;2.136;2023-03-08T16:24:35;3.20;;;1.00;;
61085;SDS011;46967;48.876;2.136;2023-03-08T16:27:01;5.60;;;1.00;;
61085;SDS011;46967;48.876;2.136;2023-03-08T16:29:28;3.40;;;0.80;;
61085;SDS011;46967;48.876;2.136;2023-03-08T16:31:55;7.68;;;1.00;;
61085;SDS011;46967;48.876;2.136;2023-03-08T16:34:22;4.13;;;0.90;;